createdAt,value
2018-06-04T00:02:17.702Z,18.60
2018-06-04T00:04:45.484Z,18.50
2018-06-04T00:07:13.289Z,18.40
2018-06-04T00:09:41.143Z,18.30
2018-06-04T00:12:10.012Z,18.30
2018-06-04T00:14:37.838Z,18.20
2018-06-04T00:17:06.388Z,18.30
2018-06-04T00:19:34.238Z,18.40
2018-06-04T00:22:02.083Z,18.30
2018-06-04T00:24:29.928Z,18.40
2018-06-04T00:26:58.203Z,18.30
2018-06-04T00:29:26.061Z,18.30
2018-06-04T00:31:54.501Z,18.10
2018-06-04T00:34:22.307Z,18.10
2018-06-04T00:36:52.222Z,18.00
2018-06-04T00:39:19.943Z,18.00
2018-06-04T00:44:15.429Z,17.90
2018-06-04T00:46:44.281Z,17.90
2018-06-04T00:49:12.055Z,18.00
2018-06-04T00:51:39.921Z,17.90
2018-06-04T00:56:35.421Z,17.90
2018-06-04T00:59:03.265Z,17.90
2018-06-04T01:01:31.069Z,18.00
2018-06-04T01:03:58.883Z,17.90
2018-06-04T01:06:26.671Z,17.80
2018-06-04T01:08:54.459Z,17.90
2018-06-04T01:11:22.267Z,17.90
2018-06-04T01:13:50.076Z,17.80
2018-06-04T01:16:17.922Z,17.80
2018-06-04T01:18:45.699Z,17.70
2018-06-04T01:21:13.503Z,17.60
2018-06-04T01:23:41.332Z,17.70
2018-06-04T01:26:09.180Z,17.70
2018-06-04T01:28:37.012Z,17.70
2018-06-04T01:31:04.890Z,17.60
2018-06-04T01:33:32.740Z,17.50
2018-06-04T01:36:00.548Z,17.50
2018-06-04T01:38:28.313Z,17.50
2018-06-04T01:40:56.185Z,17.30
2018-06-04T01:43:23.967Z,17.30
2018-06-04T01:45:51.734Z,17.40
2018-06-04T01:48:19.532Z,17.40
2018-06-04T01:50:47.365Z,17.50
2018-06-04T01:53:15.130Z,17.50
2018-06-04T01:55:42.957Z,17.40
2018-06-04T01:58:12.815Z,17.40
2018-06-04T02:00:40.644Z,17.30
2018-06-04T02:03:08.412Z,17.20
2018-06-04T02:05:36.219Z,17.10
2018-06-04T02:08:04.177Z,17.00
2018-06-04T02:10:31.954Z,17.00
2018-06-04T02:12:59.781Z,17.00
2018-06-04T02:15:27.596Z,17.10
2018-06-04T02:20:23.018Z,17.10
2018-06-04T02:22:50.857Z,17.20
2018-06-04T02:25:18.671Z,17.10
2018-06-04T02:27:47.644Z,17.20
2018-06-04T02:30:15.431Z,17.10
2018-06-04T02:32:43.258Z,17.00
2018-06-04T02:35:11.012Z,16.90
2018-06-04T02:37:38.873Z,17.00
2018-06-04T02:40:06.702Z,17.00
2018-06-04T02:42:34.511Z,16.90
2018-06-04T02:45:02.363Z,16.90
2018-06-04T02:47:30.277Z,17.00
2018-06-04T02:49:58.212Z,17.00
2018-06-04T02:52:26.084Z,16.90
2018-06-04T02:54:54.021Z,17.00
2018-06-04T02:57:21.885Z,16.90
2018-06-04T02:59:49.707Z,16.80
2018-06-04T03:02:17.577Z,16.80
2018-06-04T03:04:45.424Z,16.90
2018-06-04T03:07:13.259Z,17.00
2018-06-04T03:09:41.096Z,17.10
2018-06-04T03:12:08.890Z,17.10
2018-06-04T03:14:36.711Z,17.00
2018-06-04T03:17:04.786Z,17.10
2018-06-04T03:19:32.634Z,17.20
2018-06-04T03:22:00.616Z,17.30
2018-06-04T03:24:28.544Z,17.30
2018-06-04T03:26:56.391Z,17.40
2018-06-04T03:29:24.202Z,17.50
2018-06-04T03:31:52.046Z,17.50
2018-06-04T03:34:19.840Z,17.50
2018-06-04T03:36:47.651Z,17.60
2018-06-04T03:39:15.501Z,17.50
2018-06-04T03:41:43.260Z,17.40
2018-06-04T03:44:11.200Z,17.40
2018-06-04T03:46:40.028Z,17.50
2018-06-04T03:49:07.820Z,17.50
2018-06-04T03:51:35.722Z,17.60
2018-06-04T03:54:03.601Z,17.60
2018-06-04T03:56:31.381Z,17.70
2018-06-04T03:58:59.191Z,17.60
2018-06-04T04:11:07.051Z,17.70
2018-06-04T04:13:34.937Z,17.60
2018-06-04T04:16:02.785Z,17.70
2018-06-04T04:18:30.618Z,17.70
2018-06-04T04:20:59.923Z,17.60
2018-06-04T04:23:27.762Z,17.70
2018-06-04T04:25:55.657Z,17.70
2018-06-04T04:28:23.631Z,17.70
2018-06-04T04:30:51.764Z,17.70
2018-06-04T04:33:19.569Z,17.80
2018-06-04T04:35:47.388Z,17.70
2018-06-04T04:38:15.383Z,17.70
2018-06-04T04:40:43.233Z,17.70
2018-06-04T04:43:11.042Z,17.70
2018-06-04T04:45:38.872Z,17.80
2018-06-04T04:48:06.573Z,17.80
2018-06-04T04:50:34.308Z,17.80
2018-06-04T04:53:02.031Z,17.80
2018-06-04T04:55:29.677Z,17.90
2018-06-04T04:57:57.317Z,17.90
2018-06-04T05:02:52.536Z,17.90
2018-06-04T05:05:20.159Z,17.90
2018-06-04T05:07:49.869Z,17.90
2018-06-04T05:10:17.517Z,17.90
2018-06-04T05:12:45.158Z,17.90
2018-06-04T05:15:12.803Z,18.00
2018-06-04T05:17:40.465Z,18.00
2018-06-04T05:20:08.121Z,18.00
2018-06-04T05:22:35.793Z,18.00
2018-06-04T05:25:03.511Z,18.10
2018-06-04T05:27:31.172Z,18.10
2018-06-04T05:29:59.689Z,18.10
2018-06-04T05:42:12.365Z,18.10
2018-06-04T05:44:40.026Z,18.00
2018-06-04T05:47:07.689Z,18.10
2018-06-04T05:49:35.347Z,18.20
2018-06-04T05:52:03.055Z,18.20
2018-06-04T05:54:30.779Z,18.30
2018-06-04T05:56:58.427Z,18.30
2018-06-04T05:59:26.093Z,18.40
2018-06-04T06:01:53.766Z,18.50
2018-06-04T06:04:21.435Z,18.60
2018-06-04T06:09:16.904Z,18.70
2018-06-04T06:11:44.571Z,18.70
2018-06-04T06:14:12.265Z,18.60
2018-06-04T06:16:39.919Z,18.60
2018-06-04T06:19:07.605Z,18.70
2018-06-04T06:21:35.262Z,18.70
2018-06-04T06:24:02.951Z,18.70
2018-06-04T06:26:30.589Z,18.70
2018-06-04T06:28:58.287Z,18.80
2018-06-04T06:31:25.965Z,18.90
2018-06-04T06:33:53.629Z,19.00
2018-06-04T06:36:21.272Z,19.20
2018-06-04T06:38:48.917Z,19.20
2018-06-04T06:41:16.591Z,19.20
2018-06-04T06:43:44.261Z,19.20
2018-06-04T06:46:11.912Z,19.60
2018-06-04T06:48:39.578Z,19.80
2018-06-04T06:51:07.237Z,19.80
2018-06-04T06:53:34.916Z,20.00
2018-06-04T06:56:02.581Z,20.00
2018-06-04T06:58:30.252Z,19.70
2018-06-04T07:00:57.939Z,19.80
2018-06-04T07:03:25.589Z,20.20
2018-06-04T07:05:53.248Z,20.40
2018-06-04T07:08:21.290Z,20.60
2018-06-04T07:10:49.019Z,20.90
2018-06-04T07:13:16.695Z,21.30
2018-06-04T07:15:44.433Z,21.40
2018-06-04T07:18:12.076Z,21.20
2018-06-04T07:20:39.778Z,21.30
2018-06-04T07:23:07.453Z,21.20
2018-06-04T07:25:35.089Z,21.50
2018-06-04T07:28:02.746Z,21.90
2018-06-04T07:30:30.418Z,22.00
2018-06-04T07:32:58.100Z,21.80
2018-06-04T07:35:25.793Z,21.50
2018-06-04T07:37:53.641Z,21.50
2018-06-04T07:42:48.964Z,23.10
2018-06-04T07:45:16.647Z,24.80
2018-06-04T07:47:44.379Z,25.80
2018-06-04T07:50:15.921Z,25.10
2018-06-04T07:52:43.845Z,24.30
2018-06-04T07:55:11.523Z,24.10
2018-06-04T08:14:23.152Z,23.80
2018-06-04T08:16:50.835Z,24.20
2018-06-04T08:19:18.532Z,27.40
2018-06-04T08:21:46.209Z,27.00
2018-06-04T08:24:13.886Z,26.70
2018-06-04T08:26:41.679Z,27.70
2018-06-04T08:29:09.411Z,28.10
2018-06-04T08:31:37.197Z,27.90
2018-06-04T08:34:04.862Z,27.50
2018-06-04T08:36:32.589Z,27.50
2018-06-04T08:39:00.265Z,28.40
2018-06-04T08:41:27.931Z,29.00
2018-06-04T08:43:55.618Z,28.60
2018-06-04T08:46:23.417Z,29.10
2018-06-04T08:48:51.167Z,29.50
2018-06-04T08:51:18.889Z,29.60
2018-06-04T08:53:46.635Z,29.80
2018-06-04T08:56:14.394Z,29.70
2018-06-04T08:58:42.080Z,30.40
2018-06-04T09:01:09.772Z,29.60
2018-06-04T09:04:24.891Z,29.70
2018-06-04T09:06:52.608Z,29.60
2018-06-04T09:09:20.375Z,30.00
2018-06-04T09:11:48.139Z,30.10
2018-06-04T09:14:15.842Z,29.30
2018-06-04T09:16:43.571Z,28.90
2018-06-04T09:19:11.360Z,28.90
2018-06-04T09:21:39.714Z,29.30
2018-06-04T09:24:07.473Z,30.10
2018-06-04T09:26:35.194Z,30.50
2018-06-04T09:29:02.917Z,30.40
2018-06-04T09:31:30.662Z,30.70
2018-06-04T09:33:58.419Z,30.30
2018-06-04T09:36:26.158Z,30.40
2018-06-04T09:38:53.881Z,30.20
2018-06-04T09:41:21.620Z,31.00
2018-06-04T09:43:49.801Z,30.70
2018-06-04T09:46:20.611Z,30.70
2018-06-04T09:48:48.363Z,31.00
2018-06-04T09:51:16.065Z,31.30
2018-06-04T09:53:43.767Z,31.50
2018-06-04T09:56:11.388Z,31.60
2018-06-04T10:01:06.837Z,32.20
2018-06-04T10:03:34.492Z,32.10
2018-06-04T10:06:02.153Z,32.10
2018-06-04T10:08:29.966Z,32.20
2018-06-04T10:11:00.752Z,31.40
2018-06-04T10:13:28.441Z,30.90
2018-06-04T10:15:56.129Z,30.10
2018-06-04T10:18:34.114Z,30.90
2018-06-04T10:21:08.940Z,30.70
2018-06-04T10:23:36.656Z,31.00
2018-06-04T10:26:04.343Z,31.30
2018-06-04T10:28:35.672Z,31.40
2018-06-04T10:31:03.354Z,31.40
2018-06-04T10:33:37.502Z,31.40
2018-06-04T10:36:09.358Z,30.90
2018-06-04T10:38:37.036Z,30.80
2018-06-04T10:41:09.084Z,30.80
2018-06-04T10:43:36.740Z,30.80
2018-06-04T10:46:04.462Z,30.90
2018-06-04T10:48:34.187Z,30.80
2018-06-04T10:51:01.814Z,30.50
2018-06-04T10:53:29.476Z,30.00
2018-06-04T10:58:32.292Z,29.50
2018-06-04T11:01:04.762Z,29.50
2018-06-04T11:03:38.479Z,29.50
2018-06-04T11:06:17.995Z,29.70
2018-06-04T11:08:51.160Z,29.10
2018-06-04T11:11:23.094Z,28.60
2018-06-04T11:14:00.048Z,28.00
2018-06-04T11:16:39.014Z,28.20
2018-06-04T11:19:11.156Z,28.10
2018-06-04T11:21:43.192Z,28.40
2018-06-04T11:24:11.187Z,28.30
2018-06-04T11:26:42.349Z,28.80
2018-06-04T11:31:53.328Z,28.70
2018-06-04T11:34:21.258Z,28.00
2018-06-04T11:36:48.900Z,28.00
2018-06-04T11:39:16.584Z,28.00
2018-06-04T11:41:44.259Z,28.10
2018-06-04T11:44:11.920Z,28.30
2018-06-04T11:46:39.566Z,28.20
2018-06-04T11:49:07.222Z,28.30
2018-06-04T11:51:34.866Z,28.20
2018-06-04T11:54:02.506Z,28.40
2018-06-04T11:56:30.336Z,28.60
2018-06-04T11:58:57.869Z,28.60
2018-06-04T12:01:25.534Z,28.70
2018-06-04T12:03:53.307Z,28.40
2018-06-04T12:06:21.029Z,28.00
2018-06-04T12:08:48.821Z,27.60
2018-06-04T12:11:16.631Z,27.20
2018-06-04T12:13:44.586Z,27.10
2018-06-04T12:16:12.652Z,27.20
2018-06-04T12:18:40.507Z,27.50
2018-06-04T12:21:08.296Z,28.00
2018-06-04T12:23:36.099Z,27.90
2018-06-04T12:26:04.587Z,28.00
2018-06-04T12:28:33.411Z,28.20
2018-06-04T12:31:01.334Z,28.10
2018-06-04T12:33:29.195Z,27.90
2018-06-04T12:35:56.942Z,27.80
2018-06-04T12:38:24.672Z,27.90
2018-06-04T12:40:53.378Z,28.20
2018-06-04T12:43:23.179Z,28.30
2018-06-04T12:45:50.910Z,28.30
2018-06-04T12:48:18.671Z,28.40
2018-06-04T12:50:47.015Z,28.20
2018-06-04T12:53:14.713Z,28.50
2018-06-04T12:55:42.373Z,28.60
2018-06-04T12:58:10.036Z,28.30
2018-06-04T13:00:37.691Z,28.10
2018-06-04T13:03:05.364Z,28.00
2018-06-04T13:05:33.028Z,28.00
2018-06-04T13:08:00.723Z,28.00
2018-06-04T13:10:28.448Z,28.10
2018-06-04T13:12:56.109Z,28.30
2018-06-04T13:15:23.758Z,28.30
2018-06-04T13:17:51.394Z,28.10
2018-06-04T13:20:19.095Z,28.10
2018-06-04T13:22:46.760Z,28.00
2018-06-04T13:25:14.446Z,27.80
2018-06-04T13:27:42.192Z,27.60
2018-06-04T13:30:09.817Z,27.60
2018-06-04T13:32:37.470Z,27.40
2018-06-04T13:35:05.281Z,27.30
2018-06-04T13:37:32.930Z,27.40
2018-06-04T13:40:01.312Z,27.40
2018-06-04T13:44:56.566Z,27.50
2018-06-04T13:47:24.214Z,27.50
2018-06-04T13:49:51.914Z,27.20
2018-06-04T13:52:19.613Z,27.10
2018-06-04T13:54:47.275Z,27.40
2018-06-04T13:57:14.952Z,27.50
2018-06-04T13:59:42.608Z,27.60
2018-06-04T14:04:37.914Z,27.40
2018-06-04T14:07:05.584Z,27.30
2018-06-04T14:09:33.280Z,27.30
2018-06-04T14:12:00.936Z,27.20
2018-06-04T14:14:28.602Z,27.40
2018-06-04T14:16:56.327Z,27.80
2018-06-04T14:19:24.008Z,28.10
2018-06-04T14:21:51.669Z,28.10
2018-06-04T14:24:19.356Z,27.70
2018-06-04T14:26:47.047Z,27.50
2018-06-04T14:29:14.789Z,27.20
2018-06-04T14:31:42.467Z,26.80
2018-06-04T14:34:10.112Z,26.70
2018-06-04T14:36:37.841Z,26.60
2018-06-04T14:39:08.198Z,26.70
2018-06-04T14:41:36.314Z,26.80
2018-06-04T14:44:03.988Z,27.00
2018-06-04T14:46:31.727Z,27.10
2018-06-04T14:48:59.469Z,27.30
2018-06-04T14:51:27.159Z,27.50
2018-06-04T14:53:54.824Z,27.30
2018-06-04T14:56:22.510Z,27.20
2018-06-04T14:58:50.158Z,26.80
2018-06-04T15:01:17.839Z,26.80
2018-06-04T15:06:19.764Z,26.70
2018-06-04T15:08:47.417Z,26.80
2018-06-04T15:11:15.112Z,26.70
2018-06-04T15:13:42.777Z,26.60
2018-06-04T15:16:10.471Z,26.70
2018-06-04T15:18:38.135Z,26.80
2018-06-04T15:21:05.831Z,26.70
2018-06-04T15:23:33.515Z,26.70
2018-06-04T15:26:01.159Z,26.60
2018-06-04T15:28:28.847Z,26.70
2018-06-04T15:30:56.519Z,26.60
2018-06-04T15:33:24.217Z,26.60
2018-06-04T15:35:51.911Z,26.30
2018-06-04T15:38:19.608Z,26.30
2018-06-04T15:40:47.300Z,26.20
2018-06-04T15:43:14.993Z,26.00
2018-06-04T15:45:42.699Z,26.00
2018-06-04T15:48:10.480Z,26.00
2018-06-04T15:50:38.156Z,25.80
2018-06-04T15:53:05.854Z,26.00
2018-06-04T15:55:33.519Z,26.20
2018-06-04T15:58:01.181Z,26.10
2018-06-04T16:00:28.843Z,26.00
2018-06-04T16:02:56.507Z,25.70
2018-06-04T16:05:24.165Z,25.50
2018-06-04T16:07:51.813Z,25.60
2018-06-04T16:10:19.464Z,25.70
2018-06-04T16:12:47.151Z,26.00
2018-06-04T16:15:14.827Z,25.70
2018-06-04T16:17:42.503Z,25.70
2018-06-04T16:20:10.189Z,25.90
2018-06-04T16:22:37.919Z,26.00
2018-06-04T16:25:05.561Z,25.80
2018-06-04T16:27:33.234Z,25.60
2018-06-04T16:30:00.908Z,25.70
2018-06-04T16:32:28.612Z,25.70
2018-06-04T16:34:56.305Z,25.70
2018-06-04T16:37:24.046Z,25.60
2018-06-04T16:39:51.651Z,25.70
2018-06-04T16:42:19.315Z,25.90
2018-06-04T16:44:46.985Z,25.80
2018-06-04T16:47:14.632Z,25.50
2018-06-04T16:49:42.303Z,25.60
2018-06-04T16:52:10.004Z,25.60
2018-06-04T16:54:37.661Z,25.50
2018-06-04T16:57:05.371Z,25.40
2018-06-04T16:59:33.136Z,25.40
2018-06-04T17:02:00.728Z,25.40
2018-06-04T17:04:28.409Z,25.20
2018-06-04T17:06:56.090Z,25.10
2018-06-04T17:09:23.763Z,25.10
2018-06-04T17:11:51.461Z,25.20
2018-06-04T17:14:19.204Z,25.40
2018-06-04T17:16:46.876Z,25.40
2018-06-04T17:19:14.606Z,25.30
2018-06-04T17:21:43.228Z,25.30
2018-06-04T17:24:10.912Z,25.30
2018-06-04T17:26:38.635Z,25.10
2018-06-04T17:29:06.336Z,25.00
2018-06-04T17:31:34.412Z,25.00
2018-06-04T17:34:02.330Z,24.80
2018-06-04T17:36:30.031Z,24.80
2018-06-04T17:38:58.860Z,24.80
2018-06-04T17:53:39.404Z,24.60
2018-06-04T17:56:07.212Z,24.40
2018-06-04T17:58:35.000Z,24.40
2018-06-04T18:01:02.811Z,24.40
2018-06-04T18:03:30.566Z,24.30
2018-06-04T18:05:58.284Z,24.40
2018-06-04T18:08:27.255Z,24.30
2018-06-04T18:10:55.344Z,24.20
2018-06-04T18:13:23.016Z,24.20
2018-06-04T18:15:50.887Z,24.20
2018-06-04T18:20:46.339Z,24.10
2018-06-04T18:23:14.065Z,24.00
2018-06-04T18:35:26.805Z,23.90
2018-06-04T18:37:54.481Z,23.80
2018-06-04T18:40:22.159Z,23.80
2018-06-04T18:42:49.887Z,23.70
2018-06-04T18:45:17.638Z,23.60
2018-06-04T18:47:45.402Z,23.70
2018-06-04T18:50:13.112Z,23.60
2018-06-04T18:52:40.839Z,23.60
2018-06-04T18:55:08.557Z,23.50
2018-06-04T18:57:36.412Z,23.50
2018-06-04T19:00:04.725Z,23.40
2018-06-04T19:02:32.498Z,23.40
2018-06-04T19:05:00.287Z,23.30
2018-06-04T19:07:27.957Z,23.30
2018-06-04T19:09:55.692Z,23.20
2018-06-04T19:12:23.391Z,23.20
2018-06-04T19:14:51.142Z,23.10
2018-06-04T19:17:19.060Z,23.10
2018-06-04T19:19:46.764Z,23.00
2018-06-04T19:22:14.476Z,23.00
2018-06-04T19:24:42.154Z,22.90
2018-06-04T19:27:10.048Z,22.80
2018-06-04T19:29:37.922Z,22.80
2018-06-04T19:32:06.246Z,22.70
2018-06-04T19:34:34.012Z,22.60
2018-06-04T19:37:01.929Z,22.60
2018-06-04T19:39:29.619Z,22.40
2018-06-04T19:41:57.375Z,22.40
2018-06-04T19:46:52.693Z,22.40
2018-06-04T19:51:48.528Z,22.20
2018-06-04T19:54:16.433Z,22.20
2018-06-04T19:56:44.153Z,22.10
2018-06-04T19:59:11.889Z,22.00
2018-06-04T20:01:39.727Z,22.00
2018-06-04T20:04:08.348Z,22.00
2018-06-04T20:06:36.197Z,21.90
2018-06-04T20:09:07.415Z,21.90
2018-06-04T20:11:35.370Z,21.80
2018-06-04T20:14:03.207Z,21.70
2018-06-04T20:16:30.928Z,21.70
2018-06-04T20:18:58.616Z,21.70
2018-06-04T20:21:26.420Z,21.60
2018-06-04T20:26:21.767Z,21.50
2018-06-04T20:28:49.496Z,21.40
2018-06-04T20:31:17.270Z,21.30
2018-06-04T20:33:45.078Z,21.30
2018-06-04T20:36:14.982Z,21.30
2018-06-04T20:38:42.684Z,21.30
2018-06-04T20:41:10.575Z,21.10
2018-06-04T20:43:38.433Z,21.10
2018-06-04T20:46:06.400Z,21.00
2018-06-04T20:48:34.141Z,21.00
2018-06-04T20:51:01.964Z,20.90
2018-06-04T20:53:30.093Z,20.90
2018-06-04T20:55:58.152Z,20.80
2018-06-04T20:58:25.952Z,20.80
2018-06-04T21:00:53.802Z,20.80
2018-06-04T21:03:21.638Z,20.70
2018-06-04T21:05:49.378Z,20.70
2018-06-04T21:08:17.197Z,20.60
2018-06-04T21:10:45.024Z,20.60
2018-06-04T21:13:13.216Z,20.50
2018-06-04T21:15:41.316Z,20.40
2018-06-04T21:18:09.181Z,20.40
2018-06-04T21:20:37.142Z,20.30
2018-06-04T21:23:04.900Z,20.30
2018-06-04T21:25:32.693Z,20.30
2018-06-04T21:28:00.525Z,20.10
2018-06-04T21:30:28.302Z,20.10
2018-06-04T21:32:56.063Z,20.10
2018-06-04T21:35:23.940Z,20.20
2018-06-04T21:37:52.259Z,20.10
2018-06-04T21:40:20.321Z,20.10
2018-06-04T21:42:48.133Z,20.00
2018-06-04T21:45:15.985Z,20.00
2018-06-04T21:47:44.243Z,20.00
2018-06-04T21:50:12.021Z,19.90
2018-06-04T21:52:40.167Z,19.80
2018-06-04T21:55:07.940Z,19.70
2018-06-04T21:57:35.759Z,19.70
2018-06-04T22:00:05.219Z,19.60
2018-06-04T22:02:33.045Z,19.60
2018-06-04T22:05:00.808Z,19.50
2018-06-04T22:07:28.560Z,19.40
2018-06-04T22:09:56.341Z,19.40
2018-06-04T22:12:24.744Z,19.40
2018-06-04T22:14:52.911Z,19.30
2018-06-04T22:17:26.463Z,19.30
2018-06-04T22:19:54.477Z,19.30
2018-06-04T22:22:22.584Z,19.20
2018-06-04T22:24:50.406Z,19.20
2018-06-04T22:27:18.190Z,19.20
2018-06-04T22:29:46.207Z,19.10
2018-06-04T22:32:13.990Z,19.00
2018-06-04T22:34:41.786Z,19.00
2018-06-04T22:37:10.765Z,18.90
2018-06-04T22:39:38.565Z,18.90
2018-06-04T22:42:06.330Z,18.80
2018-06-04T22:44:34.177Z,18.80
2018-06-04T22:47:01.978Z,18.70
2018-06-04T22:49:29.806Z,18.70
2018-06-04T22:51:57.580Z,18.70
2018-06-04T23:04:10.474Z,18.60
2018-06-04T23:06:38.311Z,18.40
2018-06-04T23:09:07.208Z,18.40
2018-06-04T23:11:35.044Z,18.30
2018-06-04T23:14:03.370Z,18.30
2018-06-04T23:16:32.518Z,18.20
2018-06-04T23:19:00.294Z,18.20
2018-06-04T23:21:29.149Z,18.10
2018-06-04T23:23:56.896Z,18.10
2018-06-04T23:26:25.083Z,18.10
2018-06-04T23:28:52.918Z,18.00
2018-06-04T23:31:20.813Z,17.90
2018-06-04T23:33:48.576Z,17.80
2018-06-04T23:36:16.617Z,17.80
2018-06-04T23:38:44.426Z,17.80
2018-06-04T23:41:12.392Z,17.70
2018-06-04T23:43:41.018Z,17.70
2018-06-04T23:46:08.738Z,17.60
2018-06-04T23:48:36.589Z,17.60
2018-06-04T23:51:05.040Z,17.40
2018-06-04T23:53:34.633Z,17.40
2018-06-04T23:56:02.433Z,17.40
2018-06-04T23:58:30.726Z,17.30
